Latest Weather Observations for Cloncurry

IDQ60801

Issued at 10:22 am EST Tuesday 14 July 2020 (issued every 10 minutes, with the page automatically refreshed every 10 minutes)

About weather observations | Map of weather stations | Latest weather observations for QLD | Other Formats
Station Details ID: 029141 Name: CLONCURRY AIRPORT Lat: -20.67 Lon: 140.50 Height: 186.0 m
Data from the previous 72 hours. | See also: Recent months at Cloncurry
Date/Time
EST
Temp
°C
App
Temp
°C
Dew
Point
°C
Rel
Hum
%
Delta-T
°C
Wind Press
QNH
hPa
Press
MSL
hPa
Rain since
9am
mm
Dir  Spd
km/h
Gust
km/h
Spd
kts
Gust
kts
14/10:00am 16.2 7.9 -0.1 33 7.0 SE 33 43 18 23 1023.6 1023.2 0.0
14/09:30am 14.9 6.2 -0.4 35 6.5 SE 35 44 19 24 1023.3 1022.9 0.0
14/09:00am 13.9 5.8 -0.5 37 6.0 SE 32 43 17 23 1023.3 1022.9 0.0
14/08:30am 12.9 5.5 -0.7 39 5.6 SE 28 35 15 19 1023.1 1022.7 0.0
14/08:00am 11.9 5.6 -0.9 41 5.2 SE 22 30 12 16 1023.0 1022.6 0.0
14/07:30am 11.1 5.3 -1.3 42 4.9 SE 19 26 10 14 1022.6 1022.2 0.0
14/07:00am 11.0 5.2 -1.4 42 4.9 SE 19 24 10 13 1022.1 1021.7 0.0
14/06:30am 10.7 5.4 -0.4 46 4.5 SSE 17 24 9 13 1021.8 1021.4 0.0
14/06:00am 6.8 2.4 -2.4 52 3.4 S 11 13 6 7 1021.5 1021.1 0.0
14/05:30am 7.0 3.0 -2.2 52 3.4 S 9 11 5 6 1021.4 1021.0 0.0
14/05:00am 7.1 3.1 -2.1 52 3.4 S 9 11 5 6 1021.2 1020.8 0.0
14/04:30am 7.5 2.7 -2.2 50 3.6 S 13 15 7 8 1021.2 1020.8 0.0
14/04:00am 8.5 3.0 -1.9 48 4.0 S 17 20 9 11 1021.1 1020.7 0.0
14/03:30am 8.2 3.1 -2.1 48 3.9 S 15 17 8 9 1021.1 1020.7 0.0
14/03:00am 9.2 5.1 -2.7 43 4.5 S 9 11 5 6 1021.2 1020.8 0.0
14/02:30am 10.1 5.0 -1.9 43 4.7 S 15 19 8 10 1021.2 1020.8 0.0
14/02:00am 9.8 4.2 -2.5 42 4.7 S 17 20 9 11 1021.4 1021.0 0.0
14/01:30am 10.2 5.0 -2.8 40 5.0 SSW 15 17 8 9 1021.6 1021.2 0.0
14/01:00am 10.0 4.8 -3.0 40 4.9 SSW 15 17 8 9 1021.8 1021.4 0.0
14/12:30am 10.2 5.3 -3.8 37 5.2 SSW 13 15 7 8 1022.2 1021.8 0.0
14/12:00am 10.9 5.9 -4.3 34 5.6 S 13 15 7 8 1022.4 1022.0 0.0
 
Date/Time
EST
Temp
°C
App
Temp
°C
Dew
Point
°C
Rel
Hum
%
Delta-T
°C
Wind Press
QNH
hPa
Press
MSL
hPa
Rain since
9am
mm
Dir  Spd
km/h
Gust
km/h
Spd
kts
Gust
kts
13/11:30pm 11.5 6.6 -3.8 34 5.8 S 13 15 7 8 1022.3 1021.9 0.0
13/11:00pm 12.0 7.4 -4.2 32 6.1 S 11 13 6 7 1022.4 1022.0 0.0
13/10:30pm 12.9 7.9 -4.2 30 6.5 S 13 17 7 9 1022.4 1022.0 0.0
13/10:00pm 12.8 7.4 -4.8 29 6.6 S 15 15 8 8 1022.1 1021.7 0.0
13/09:30pm 14.6 9.6 -4.7 26 7.4 SSE 13 17 7 9 1022.1 1021.7 0.0
13/09:00pm 16.8 10.6 -4.4 23 8.3 SSE 19 24 10 13 1021.9 1021.5 0.0
13/08:30pm 17.2 11.0 -4.7 22 8.6 SSE 19 22 10 12 1021.7 1021.3 0.0
13/08:00pm 17.3 11.4 -5.2 21 8.8 SSE 17 20 9 11 1021.5 1021.1 0.0
13/07:30pm 17.2 11.7 -5.3 21 8.8 SE 15 19 8 10 1021.3 1020.9 0.0
13/07:00pm 18.2 12.3 -5.8 19 9.3 SSE 17 20 9 11 1020.9 1020.5 0.0
13/06:30pm 18.9 12.5 -6.7 17 9.9 SSE 19 24 10 13 1020.7 1020.3 0.0
13/06:00pm 19.8 13.2 -6.7 16 10.3 SSE 20 33 11 18 1020.4 1019.9 0.0
13/05:30pm 20.6 13.6 -6.9 15 10.7 SSE 22 30 12 16 1020.2 1019.7 0.0
13/05:00pm 21.1 13.2 -8.4 13 11.2 SE 26 37 14 20 1019.8 1019.3 0.0
13/04:30pm 21.5 13.3 -8.0 13 11.4 SSE 28 39 15 21 1019.7 1019.2 0.0
13/04:00pm 21.7 14.0 -6.9 14 11.3 SSE 26 37 14 20 1019.6 1019.1 0.0
13/03:30pm 21.8 13.7 -6.8 14 11.3 S 28 41 15 22 1019.4 1018.9 0.0
13/03:00pm 21.3 13.6 -6.3 15 11.0 SSE 26 37 14 20 1019.5 1019.0 0.0
13/02:30pm 20.8 13.7 -4.4 18 10.4 SSE 24 33 13 18 1020.1 1019.6 0.0
13/02:00pm 20.4 13.3 -4.7 18 10.2 SE 24 32 13 17 1020.4 1019.9 0.0
13/01:30pm 20.6 13.4 -5.3 17 10.4 SE 24 35 13 19 1020.7 1020.3 0.0
13/01:00pm 19.4 12.7 -4.1 20 9.6 SE 22 32 12 17 1021.1 1020.7 0.0
13/12:30pm 18.6 11.9 -4.1 21 9.2 SSE 22 32 12 17 1021.8 1021.4 0.0
13/12:00pm 18.4 11.6 -2.0 25 8.6 SSE 24 32 13 17 1022.5 1022.1 0.0
13/11:30am 17.2 10.3 -2.4 26 8.1 SSE 24 33 13 18 1023.1 1022.7 0.0
13/11:00am 16.3 10.0 -0.8 31 7.2 SSE 22 32 12 17 1023.9 1023.5 0.0
13/10:30am 15.5 9.3 -0.3 34 6.7 S 22 30 12 16 1024.0 1023.6 0.0
13/10:00am 14.9 9.2 0.4 37 6.2 SSE 20 26 11 14 1024.0 1023.6 0.0
13/09:30am 13.3 7.6 0.7 42 5.4 SSE 20 26 11 14 1023.8 1023.4 0.0
13/09:00am 12.5 7.0 0.9 45 4.9 S 19 24 10 13 1023.6 1023.2 0.0
13/08:30am 10.9 5.8 0.6 49 4.3 S 17 22 9 12 1023.2 1022.8 0.0
13/08:00am 9.2 5.6 0.4 54 3.6 SSW 9 13 5 7 1022.9 1022.5 0.0
13/07:30am 8.1 5.0 0.3 58 3.1 SSW 6 7 3 4 1022.7 1022.3 0.0
13/07:00am 8.2 4.6 0.4 58 3.1 SSW 9 13 5 7 1022.4 1022.0 0.0
13/06:30am 8.5 4.4 0.0 55 3.4 SSW 11 15 6 8 1021.9 1021.5 0.0
13/06:00am 9.0 3.4 0.2 54 3.5 SSW 19 20 10 11 1021.3 1020.9 0.0
13/05:30am 8.2 4.1 -0.3 55 3.4 SSW 11 13 6 7 1021.2 1020.8 0.0
13/05:00am 8.3 3.8 -0.2 55 3.4 SSW 13 13 7 7 1020.9 1020.5 0.0
13/04:30am 8.7 3.7 -0.9 51 3.8 SSW 15 17 8 9 1021.0 1020.6 0.0
13/04:00am 9.4 5.3 -0.5 50 3.9 S 11 13 6 7 1021.0 1020.6 0.0
13/03:30am 9.9 5.4 -0.6 48 4.2 S 13 19 7 10 1020.9 1020.5 0.0
13/03:00am 9.9 5.3 -0.9 47 4.3 S 13 15 7 8 1021.0 1020.6 0.0
13/02:30am 11.1 6.5 -1.0 43 4.9 S 13 17 7 9 1021.0 1020.6 0.0
13/02:00am 12.2 6.8 -1.0 40 5.3 S 17 22 9 12 1021.2 1020.8 0.0
13/01:30am 12.2 6.8 -1.0 40 5.4 S 17 22 9 12 1021.4 1021.0 0.0
13/01:00am 11.3 6.3 -1.1 42 5.0 S 15 17 8 9 1021.6 1021.2 0.0
13/12:30am 10.9 6.2 -1.8 41 5.0 S 13 15 7 8 1021.5 1021.1 0.0
13/12:00am 11.8 7.9 -1.7 39 5.3 S 9 11 5 6 1021.4 1021.0 0.0
 
Date/Time
EST
Temp
°C
App
Temp
°C
Dew
Point
°C
Rel
Hum
%
Delta-T
°C
Wind Press
QNH
hPa
Press
MSL
hPa
Rain since
9am
mm
Dir  Spd
km/h
Gust
km/h
Spd
kts
Gust
kts
12/11:30pm 12.0 7.6 -2.6 36 5.7 S 11 13 6 7 1021.5 1021.1 0.0
12/11:00pm 12.8 8.4 -2.6 34 6.0 S 11 13 6 7 1021.6 1021.2 0.0
12/10:30pm 13.1 8.7 -2.8 33 6.3 S 11 13 6 7 1021.6 1021.2 0.0
12/10:00pm 13.5 8.3 -2.8 32 6.4 S 15 17 8 9 1021.3 1020.9 0.0
12/09:30pm 15.1 9.5 -2.8 29 7.2 SSW 17 20 9 11 1020.9 1020.5 0.0
12/09:00pm 15.4 10.1 -3.5 27 7.5 SSW 15 19 8 10 1020.6 1020.1 0.0
12/08:30pm 16.2 10.9 -3.8 25 8.0 SSW 15 17 8 9 1020.3 1019.8 0.0
12/08:00pm 17.2 11.5 -3.5 24 8.3 SSW 17 19 9 10 1019.9 1019.4 0.0
12/07:30pm 17.8 12.1 -3.6 23 8.7 SSW 17 22 9 12 1019.4 1018.9 0.0
12/07:00pm 18.3 13.4 -3.2 23 8.8 SSW 13 17 7 9 1018.8 1018.4 0.0
12/06:30pm 19.4 14.0 -4.1 20 9.6 SSW 15 20 8 11 1018.3 1017.9 0.0
12/06:00pm 20.8 14.6 -4.4 18 10.3 SSW 19 24 10 13 1017.9 1017.5 0.0
12/05:30pm 21.7 15.4 -3.6 18 10.7 SSW 20 26 11 14 1017.9 1017.5 0.0
12/05:00pm 22.4 16.2 -3.1 18 10.9 S 20 30 11 16 1017.6 1017.2 0.0
12/04:30pm 22.6 16.0 -2.9 18 11.0 S 22 28 12 15 1017.6 1017.2 0.0
12/04:00pm 23.0 16.9 -2.6 18 11.1 S 20 26 11 14 1017.8 1017.4 0.0
12/03:30pm 22.7 16.6 -2.1 19 10.9 S 20 30 11 16 1017.9 1017.5 0.0
12/03:00pm 22.5 16.0 -2.2 19 10.8 SSW 22 32 12 17 1018.0 1017.6 0.0
12/02:30pm 21.9 15.8 -2.0 20 10.4 SSW 20 32 11 17 1018.2 1017.8 0.0
12/02:00pm 22.1 15.4 -1.2 21 10.3 SSW 24 33 13 18 1018.5 1018.1 0.0
12/01:30pm 21.4 15.4 -1.2 22 10.0 SSW 20 30 11 16 1019.2 1018.7 0.0
12/01:00pm 20.9 14.9 -1.6 22 9.8 S 20 28 11 15 1019.7 1019.2 0.0
12/12:30pm 20.4 13.3 -1.4 23 9.5 SSW 26 35 14 19 1020.3 1019.8 0.0
12/12:00pm 20.1 13.4 -1.1 24 9.2 SSW 24 32 13 17 1020.7 1020.3 0.0
12/11:30am 18.9 11.8 -1.5 25 8.7 S 26 33 14 18 1021.0 1020.6 0.0
12/11:00am 18.1 11.3 -1.7 26 8.4 S 24 33 13 18 1021.3 1020.9 0.0
12/10:30am 17.4 10.2 -1.8 27 8.1 SSW 26 35 14 19 1021.5 1021.1 0.0
12/10:00am 16.4 7.8 -2.6 27 7.7 S 33 44 18 24 1021.4 1021.0 0.0
12/09:30am 15.6 7.2 -2.3 29 7.3 S 32 39 17 21 1021.4 1021.0 0.0
12/09:00am 14.8 7.3 -1.7 32 6.7 S 28 35 15 19 1021.3 1020.9 0.0
12/08:30am 14.1 6.7 -0.7 36 6.2 SSW 28 41 15 22 1020.6 1020.1 0.0
12/08:00am 14.1 5.8 -0.4 37 6.1 SSW 33 43 18 23 1020.1 1019.6 0.0
12/07:30am 13.6 5.6 0.3 40 5.6 SSW 32 41 17 22 1019.9 1019.4 0.0
12/07:00am 13.7 6.5 0.7 41 5.5 SSW 28 35 15 19 1019.7 1019.2 0.0
12/06:30am 14.1 6.6 1.1 41 5.6 SSW 30 41 16 22 1019.2 1018.7 0.0
12/06:00am 14.6 6.8 1.5 41 5.7 SSW 32 43 17 23 1018.7 1018.3 0.0
12/05:30am 15.1 8.4 1.6 40 6.0 SSW 26 37 14 20 1018.4 1018.0 0.0
12/05:00am 15.4 8.3 1.2 38 6.2 SSW 28 33 15 18 1018.1 1017.7 0.0
12/04:30am 15.7 8.6 1.1 37 6.4 SSW 28 39 15 21 1018.0 1017.6 0.0
12/04:00am 15.9 9.4 0.5 35 6.7 SSW 24 30 13 16 1018.1 1017.7 0.0
12/03:30am 16.4 10.3 0.5 34 6.9 SSW 22 33 12 18 1018.1 1017.7 0.0
12/03:00am 16.7 10.2 0.4 33 7.1 SSW 24 30 13 16 1018.0 1017.6 0.0
12/02:30am 17.2 10.4 0.8 33 7.3 SSW 26 32 14 17 1018.0 1017.6 0.0
12/02:00am 17.5 11.5 1.1 33 7.3 SSW 22 26 12 14 1018.1 1017.7 0.0
12/01:30am 18.0 11.8 1.9 34 7.3 SSW 24 30 13 16 1018.1 1017.7 0.0
12/01:00am 17.1 11.9 0.3 32 7.3 SSW 17 20 9 11 1018.0 1017.6 0.0
12/12:30am 17.8 12.2 0.0 30 7.8 SSW 19 22 10 12 1018.0 1017.6 0.0
12/12:00am 16.5 11.6 -0.2 32 7.2 SSW 15 17 8 9 1018.0 1017.6 0.0
 
Date/Time
EST
Temp
°C
App
Temp
°C
Dew
Point
°C
Rel
Hum
%
Delta-T
°C
Wind Press
QNH
hPa
Press
MSL
hPa
Rain since
9am
mm
Dir  Spd
km/h
Gust
km/h
Spd
kts
Gust
kts
11/11:30pm 16.6 11.9 -1.5 29 7.6 S 13 15 7 8 1018.1 1017.7 0.0
11/11:00pm 17.0 12.3 -1.6 28 7.8 SSW 13 15 7 8 1018.1 1017.7 0.0
11/10:30pm 17.3 12.9 -2.4 26 8.2 SSW 11 13 6 7 1018.0 1017.6 0.0
11/10:00pm 18.5 13.3 -2.4 24 8.7 S 15 17 8 9 1018.0 1017.6 0.0
11/09:30pm 18.5 13.8 -1.9 25 8.6 S 13 15 7 8 1017.9 1017.5 0.0
11/09:00pm 18.9 14.5 -2.7 23 9.0 S 11 13 6 7 1017.8 1017.4 0.0
11/08:30pm 19.7 14.9 -2.6 22 9.4 S 13 13 7 7 1017.5 1017.1 0.0
11/08:00pm 21.5 17.5 -2.4 20 10.3 S 9 11 5 6 1017.2 1016.8 0.0
11/07:30pm 22.0 18.0 -2.0 20 10.5 S 9 11 5 6 1016.8 1016.4 0.0
11/07:00pm 23.2 17.9 -3.2 17 11.4 S 15 17 8 9 1016.3 1015.9 0.0
11/06:30pm 24.3 19.0 -4.0 15 12.1 SSW 15 19 8 10 1016.0 1015.5 0.0
11/06:00pm 26.1 19.9 -3.5 14 13.0 S 20 26 11 14 1015.8 1015.3 0.0
11/05:30pm 27.1 20.5 -3.7 13 13.6 S 22 30 12 16 1015.7 1015.2 0.0
11/05:00pm 27.8 21.2 -3.1 13 13.8 SSW 22 28 12 15 1015.6 1015.1 0.0
11/04:30pm 27.9 21.5 -2.0 14 13.7 S 22 33 12 18 1015.3 1014.8 0.0
11/04:00pm 28.7 22.4 1.3 17 13.4 SSW 24 32 13 17 1015.1 1014.6 0.0
11/03:30pm 28.6 22.7 2.0 18 13.1 S 22 32 12 17 1015.2 1014.7 0.0
11/03:00pm 28.8 23.7 2.9 19 13.0 SSW 19 30 10 16 1015.3 1014.8 0.0
11/02:30pm 29.0 23.9 3.1 19 13.1 S 19 30 10 16 1015.3 1014.8 0.0
11/02:00pm 28.1 23.8 3.0 20 12.6 S 15 22 8 12 1015.8 1015.3 0.0
11/01:30pm 27.6 23.7 5.2 24 11.6 S 15 22 8 12 1016.3 1015.9 0.0
11/01:00pm 27.5 23.5 6.8 27 11.0 SSW 17 30 9 16 1016.8 1016.4 0.0
11/12:30pm 26.7 22.6 7.7 30 10.2 SSE 19 26 10 14 1017.6 1017.2 0.0
11/12:00pm 26.4 22.1 7.9 31 10.0 S 20 30 11 16 1017.8 1017.4 0.0
11/11:30am 25.7 21.8 8.7 34 9.3 S 19 26 10 14 1018.2 1017.8 0.0
11/11:00am 24.7 21.2 8.6 36 8.7 S 17 24 9 13 1018.5 1018.1 0.0
11/10:30am 23.9 20.5 9.1 39 8.1 S 17 24 9 13 1018.7 1018.3 0.0

Other formats

Comma delimited format used in spreadsheet applications
http://www.bom.gov.au/fwo/IDQ60801/IDQ60801.94335.axf

JavaScript Object Notation format (JSON) in row-major order
http://www.bom.gov.au/fwo/IDQ60801/IDQ60801.94335.json

Data quality

Most of these data are generated automatically and are frequently updated. Quality checks on data are not normally performed. It is possible for incorrect values to appear. Refer to information at About Latest Weather Observations and please check the disclaimer before using these data.